KFOD

Fort Dodge Regional Airport

Fort Dodge, Iowa, USA
KFOD 230525Z 2306/2406 35009KT P6SM OVC018 FM230700 34011KT P6SM SCT018 OVC100 FM231100 33010KT P6SM OVC035 FM231500 31007KT P6SM SCT045 FM232000 24006KT P6SM SCT250
Issued Valid From Valid To
Jan-23 @ 05:25 UTC
(2 hours ago)
Jan-23 @ 06:00 UTC
(an hour ago)
Jan-24 @ 06:00 UTC
(in 23 hours)
Expired Click to View Jan-23 @ 06:00 to Jan-23 @ 07:00
KFOD 230525Z 2306/2406 35009KT P6SM OVC018
Wind Visibility Clouds
350° at 9 knots Greater than 6 miles
  • Overcast at 1,800' AGL
From Jan-23 @ 07:00 to Jan-23 @ 11:00
FM230700 34011KT P6SM SCT018 OVC100
Wind Visibility Clouds
340° at 11 knots Greater than 6 miles
  • Scattered at 1,800' AGL
  • Overcast at 10,000' AGL
From Jan-23 @ 11:00 to Jan-23 @ 15:00
FM231100 33010KT P6SM OVC035
Wind Visibility Clouds
330° at 10 knots Greater than 6 miles
  • Overcast at 3,500' AGL
From Jan-23 @ 15:00 to Jan-23 @ 20:00
FM231500 31007KT P6SM SCT045
Wind Visibility Clouds
310° at 7 knots Greater than 6 miles
  • Scattered at 4,500' AGL
From Jan-23 @ 20:00 to Jan-24 @ 06:00
FM232000 24006KT P6SM SCT250
Wind Visibility Clouds
240° at 6 knots Greater than 6 miles
  • Scattered at 25,000' AGL
KFOD 230525Z 2306/2406 35009KT P6SM OVC018 FM230700 34011KT P6SM SCT018 OVC100 FM231100 33010KT P6SM OVC035 FM231500 31007KT P6SM SCT045 FM232000 24006KT P6SM SCT250
Issued Jan-23 @ 05:25 UTC
(2 hours ago)
Valid From Jan-23 @ 06:00 UTC
(an hour ago)
Valid To Jan-24 @ 06:00 UTC
(in 23 hours)
Jan-23 @ 06:00 - Jan-23 @ 07:00
Wind Visibility
350° at 9 knots Greater than 6 miles
Clouds
  • Overcast at 1,800' AGL
From Jan-23 @ 07:00 - Jan-23 @ 11:00
Wind Visibility
340° at 11 knots Greater than 6 miles
Clouds
  • Scattered at 1,800' AGL
  • Overcast at 10,000' AGL
From Jan-23 @ 11:00 - Jan-23 @ 15:00
Wind Visibility
330° at 10 knots Greater than 6 miles
Clouds
  • Overcast at 3,500' AGL
From Jan-23 @ 15:00 - Jan-23 @ 20:00
Wind Visibility
310° at 7 knots Greater than 6 miles
Clouds
  • Scattered at 4,500' AGL
From Jan-23 @ 20:00 - Jan-24 @ 06:00
Wind Visibility
240° at 6 knots Greater than 6 miles
Clouds
  • Scattered at 25,000' AGL